الصفحة الرئيسية
METAR-TAF:

METAR-TAF

مطار :

مطار دبي الدولي

إمارة دبي, الإمارات العربية المتحدة

دائرة عرض: 25-15-10N, خط طول: 055-21-52E, ارتفاع: 8 متر

مراقبة الطقس الحالي

تاريخ ووقت الإصدار 49 دقيقة قبل الساعة 18:00UTC
ريح 7 عقدة من الشرق, الاتجاه يتراوح بين الشمال/الشمال الشرقي و الجنوب الشرقي
درجة الحرارة 23°درجة مئوية
الرطوبة 38%
ضغط 1020 hPa
الرؤية 10 كم أو أكثر
الغيوم لا تقل 1500 م ولا وجود لمزنة ركامية السحاب الأسود

METAR: OMDB 171800Z 08007KT 020V140 CAVOK 23/08 Q1020 NOSIG

زمن: 22:49 (18:49 UTC)

توقعات

تاريخ ووقت الإصدار 1ساعة و 57 دقيقة قبل الساعة 16:52UTC
التوقعات صالحة من17 الساعة 18 UTC إلى 19 الساعة 00 UTC
ريح 8 عقدة من الشرق
الرؤية 10 كم أو أكثر
الغيوم لا تقل 1500 م ولا وجود لمزنة ركامية السحاب الأسود
أصبح
من 18 الساعة 04 UTC إلى 18 الساعة 06 UTC
ريح 10 عقدة من الجنوب
أصبح
من 18 الساعة 08 UTC إلى 18 الساعة 10 UTC
ريح 10 عقدة من الشمال الغربي
أصبح
من 18 الساعة 16 UTC إلى 18 الساعة 18 UTC
ريح 6 عقدة من الشرق/الجنوب الشرقي

TAF: OMDB 171652Z 1718/1900 10008KT CAVOK BECMG 1804/1806 18010KT BECMG 1808/1810 32010KT BECMG 1816/1818 11006KT

أرصاد الطقس والتوقعات من أكثر من 4000 مطار (تقارير الطقس للمطار METAR والتنبؤ بالطقس بالمطارTAF).

المحطات المتاحة هي النقط الصفراء والحمراء على الخريطة.

حرك المؤشر فوق النقطة لمعرفة اسم المحطة.

ثم انقر لمعرفة أرصاد وتوقعات الطقس.

لتغيير الخارطة: اضغط على الأزرار الخضراء مع رمز الصليب الأسود للتكبير. على الزر الأخضر مع شرطة للتصغير، أو على الأسهم الخضراء للخرائط المجاورة.


METAR-TAF: